Impacts TAF Board
For situational awareness. Not to be used for flight planning purposes.
IDs:

KPDX - Portland Intl Arpt, OR, US

Issued at 1848 UTC 15 Oct 2018
Updated at 2022 UTC 15 Oct 2018
Potential Impact None Slight Moderate High
Time1953Z 15/21Z 15/22Z 15/23Z 16/00Z 16/01Z 16/02Z 16/03Z 16/04Z 16/05Z 16/06Z 16/07Z 16/08Z 16/09Z>>
Type OBS PRVL PRVL PRVL PRVL PRVL PRVL PRVL PRVL PRVL PRVL PRVL PRVL PRVL
VIS 10 >6 >6 >6 >6 >6 >6 >6 >6 >6 >6 >6 >6 >6
CIG -- -- -- -- -- -- -- -- -- -- -- -- -- --
Cover FEW SKC SKC SKC SKC SKC SKC SKC SKC SKC SKC SKC SKC SKC
FltCat VFR VFR VFR VFR VFR VFR VFR VFR VFR VFR VFR VFR VFR VFR
WX -- -- -- -- -- -- -- -- -- -- -- -- -- --
WDir VRB 90 90 90 90 90 90 90 90 90 90 90 90 90
WSpd 3 9 9 9 9 9 9 9 9 9 9 9 9 9
WGst -- -- -- -- -- -- -- -- -- -- -- -- -- --
Raw TAF
KPDX 151848Z 1519/1618 VRB04KT P6SM SKC WS020/09030KT
  FM152100 09009KT P6SM SKC
  FM161000 VRB04KT P6SM SKC WS020/09030KT


Raw METAR
KPDX 151953Z VRB03KT 10SM FEW250 18/03 A3029 RMK AO2 SLP255 T01830028
KPDX 151853Z 28004KT 10SM FEW250 17/M01 A3031 RMK AO2 SLP262 T01671006
KPDX 151753Z 30005KT 10SM FEW250 14/03 A3032 RMK AO2 SLP265 T01390028 10139 20044 50005

METAR Board
Radar Display
Forecast Discussion
For situational awareness. Not to be used for flight planning purposes.